AirNav   Everest Fuels
 
 1942 users online  

NJ09 Matthews Airport
Belvidere, New Jersey, USA

GOING TO BELVIDERE?


FAA INFORMATION EFFECTIVE 11 AUGUST 2022

Location

FAA Identifier: NJ09
Lat/Long: 40-47-30.3530N 075-04-13.6260W
40-47.505883N 075-04.227100W
40.7917647,-75.0704517
(estimated)
Elevation: 750 ft. / 229 m (estimated)
Variation: 12W (1985)
From city: 3 miles S of BELVIDERE, NJ
Time zone: UTC -4 (UTC -5 during Standard Time)
Zip code: 07823

Airport Operations

Airport use: Private use. Permission required prior to landing
Activation date: 11/1964
Control tower: no
ARTCC: NEW YORK CENTER
FSS: MILLVILLE FLIGHT SERVICE STATION
Attendance: UNATNDD
Wind indicator: yes
Segmented circle: no

Airport Communications

WX AWOS-3 at N40 (14 nm S): 121.725
WX ASOS at ABE (19 nm SW): 126.975 (610-264-1765)
WX ASOS at 12N (20 nm NE): PHONE 917-786-7221

Nearby radio navigation aids

VOR radial/distance  VOR name  Freq  Var
BWZr279/11.3BROADWAY VOR/DME114.2011W
STWr228/15.3STILLWATER VOR/DME109.6011W
FJCr087/17.9ALLENTOWN VORTAC117.5010W
SBJr320/19.5SOLBERG VOR/DME112.9010W
SAXr247/29.3SPARTA VORTAC115.7011W
ETXr075/30.6EAST TEXAS VOR/DME110.2009W
ARDr357/33.1YARDLEY VOR/DME108.2010W

 
NDB name  Hdg/Dist  Freq  Var  ID
CHATHAM289/29.325413WCAT -.-. .- -

Airport Services

Airframe service: NONE
Powerplant service: NONE

Runway Information

Runway 7/25

Dimensions: 2000 x 50 ft. / 610 x 15 m
Surface: turf, in good condition
RUNWAY 7  RUNWAY 25
Traffic pattern: leftright
Obstructions: brushbrush

Airport Ownership and Management from official FAA records

Ownership: Privately-owned
Owner: IVAN & TIMOTHY MATTHEWS
2 MATTHEWS LA
BELVIDERE, NJ 07823
Phone (908) 763-1311
Manager: IVAN & TIMOTHY MATTHEWS
81 LOMMASON GLEN RD
BELVIDERE, NJ 07823
Phone 908-310-0369

Airport Operational Statistics

Aircraft based on the field: 2
Single engine airplanes: 2
    

Additional Remarks

FOR CD CTC ALLENTOWN APCH AT 800-728-6322.

Instrument Procedures

There are no published instrument procedures at NJ09.

Some nearby airports with instrument procedures:

N43 - Braden Airpark (8 nm W)
1N7 - Blairstown Airport (11 nm N)
N85 - Alexandria Airport (12 nm S)
N40 - Sky Manor Airport (14 nm S)
N53 - Stroudsburg-Pocono Airport (15 nm N)
KABE - Lehigh Valley International Airport (19 nm SW)
N51 - Solberg-Hunterdon Airport (20 nm SE)
12N - Aeroflex/Andover Airport (20 nm NE)
 
Loc | Ops | Rwys | IFR | FBO | Links
Com | Nav | Svcs | Stats | Notes
Area around NJ09 (Matthews Airport)
 
Road maps at: MapQuest Bing Google
 
Aerial photo
No photo
 
Sectional chart

 
Airport distance calculator
Flying to Matthews Airport? Find the distance to fly.

From to NJ09

Sunrise and sunset
Times for 15-Aug-2022
 Local
(UTC-4)
 Zulu
(UTC)
Morning civil twilight05:4209:42
Sunrise06:1110:11
Sunset19:5823:58
Evening civil twilight20:2800:28

Current date and time
Zulu (UTC)  15-Aug-2022 20:23:23
Local (UTC-4)  15-Aug-2022 16:23:23
 
METAR
KABE 
19nm SW 
151951Z 14007KT 100V170 10SM CLR 30/09 A2994 RMK AO2 SLP135 T03000089
K12N 
20nm NE 
151954Z AUTO VRB03KT 28/10 A2996 RMK AO1 SLP138 T02830100
KSMQ 
21nm SE 
ASOS 120.60 908-722-2139
151953Z AUTO 11008KT 10SM SCT080 28/10 A2993 RMK AO2 SLP134 T02830100
KXLL 
23nm SW 
151955Z AUTO 20006KT 10SM CLR 28/11 A2996 RMK AO2
KMPO 
25nm NW 
151953Z AUTO 13004KT 10SM FEW100 24/11 A3001 RMK AO2 SLP156 T02440106 $
KUKT 
26nm SW 
151955Z AUTO 13009KT 10SM BKN070 BKN085 30/12 A2995 RMK A01
KCKZ 
26nm SW 
151955Z AUTO 09006KT 10SM FEW095 28/11 A2997 RMK AO2
KDYL 
28nm S 
151954Z AUTO VRB04KT 10SM CLR 28/11 A2995 RMK AO2 SLP137 T02780111
KMMU 
30nm E 
151945Z 16010G16KT 10SM SCT075 SCT250 28/11 A2996
K22N 
31nm W 
151955Z AUTO 27006KT 10SM CLR 27/11 A2996 RMK AO2
TAF
KABE 
19nm SW 
151720Z 1518/1618 VRB05KT P6SM BKN150 FM160400 04004KT P6SM SCT150
NOTAMs
Click for the latest NOTAMs
NOTAMs are issued by the DoD/FAA and will open in a separate window not controlled by AirNav.

 

 
 

Would you like to see your business listed on this page?

 If your business provides an interesting product or service to pilots, flight crews, aircraft, or users of the Matthews Airport, you should consider listing it here.  To start the listing process, click on the button below
 
Add a business
 

Other Pages about Matthews Airport

Update a link
 
Copyright © AirNav, LLC. All rights reserved. Privacy Policy  Contact